createdAt,value
2023-03-18T00:00:21.987Z,6.77
2023-03-18T00:04:22.632Z,6.72
2023-03-18T00:08:24.117Z,6.56
2023-03-18T00:12:28.104Z,6.67
2023-03-18T00:16:28.766Z,6.47
2023-03-18T00:20:38.888Z,6.42
2023-03-18T00:24:39.949Z,6.18
2023-03-18T00:28:43.114Z,6.18
2023-03-18T00:32:44.296Z,6.19
2023-03-18T00:36:47.901Z,6.26
2023-03-18T00:40:53.685Z,6.40
2023-03-18T00:44:56.880Z,6.34
2023-03-18T00:49:00.562Z,6.28
2023-03-18T00:53:00.855Z,6.32
2023-03-18T00:57:01.858Z,6.20
2023-03-18T01:01:05.660Z,6.15
2023-03-18T01:05:07.328Z,6.09
2023-03-18T01:09:11.969Z,6.10
2023-03-18T01:13:13.554Z,6.02
2023-03-18T01:17:18.340Z,5.94
2023-03-18T01:21:23.183Z,6.05
2023-03-18T01:25:30.887Z,5.93
2023-03-18T01:29:31.797Z,5.92
2023-03-18T01:33:40.523Z,5.84
2023-03-18T01:37:42.234Z,5.59
2023-03-18T01:41:46.426Z,5.53
2023-03-18T01:45:54.488Z,5.45
2023-03-18T01:50:00.176Z,5.38
2023-03-18T01:54:07.563Z,5.43
2023-03-18T01:58:13.293Z,5.36
2023-03-18T02:02:18.638Z,5.33
2023-03-18T02:06:22.237Z,5.21
2023-03-18T02:10:33.775Z,5.25
2023-03-18T02:14:34.575Z,5.24
2023-03-18T02:18:43.779Z,4.88
2023-03-18T02:22:53.616Z,5.21
2023-03-18T02:27:01.656Z,5.16
2023-03-18T02:31:18.498Z,5.10
2023-03-18T02:35:20.755Z,5.15
2023-03-18T02:39:22.393Z,5.15
2023-03-18T02:43:30.391Z,5.04
2023-03-18T02:47:37.084Z,5.11
2023-03-18T02:51:39.725Z,5.19
2023-03-18T02:55:41.763Z,5.07
2023-03-18T02:59:43.744Z,5.11
2023-03-18T03:03:47.289Z,5.16
2023-03-18T03:07:47.586Z,5.19
2023-03-18T03:11:50.194Z,5.18
2023-03-18T03:15:56.082Z,5.15
2023-03-18T03:19:59.362Z,5.23
2023-03-18T03:24:00.407Z,5.12
2023-03-18T03:28:01.240Z,5.05
2023-03-18T03:32:02.292Z,5.01
2023-03-18T03:36:05.696Z,5.09
2023-03-18T03:40:08.368Z,5.07
2023-03-18T03:44:09.348Z,5.06
2023-03-18T03:48:14.206Z,5.11
2023-03-18T03:52:20.789Z,5.10
2023-03-18T03:56:26.182Z,4.89
2023-03-18T04:00:27.778Z,4.95
2023-03-18T04:04:28.377Z,5.12
2023-03-18T04:08:32.648Z,5.14
2023-03-18T04:12:33.555Z,5.09
2023-03-18T04:16:35.917Z,4.71
2023-03-18T04:20:38.168Z,5.00
2023-03-18T04:24:49.865Z,4.96
2023-03-18T04:28:50.394Z,4.90
2023-03-18T04:32:52.060Z,4.95
2023-03-18T04:36:52.875Z,4.93
2023-03-18T04:40:56.520Z,4.89
2023-03-18T04:44:58.005Z,4.91
2023-03-18T04:49:01.056Z,4.76
2023-03-18T04:53:01.904Z,4.78
2023-03-18T04:57:07.790Z,4.77
2023-03-18T05:01:13.999Z,4.79
2023-03-18T05:05:15.071Z,4.67
2023-03-18T05:09:21.693Z,4.63
2023-03-18T05:13:25.111Z,4.53
2023-03-18T05:17:26.867Z,4.54
2023-03-18T05:21:31.624Z,4.62
2023-03-18T05:25:34.298Z,4.75
2023-03-18T05:29:38.496Z,4.79
2023-03-18T05:33:45.218Z,4.89
2023-03-18T05:37:46.811Z,4.94
2023-03-18T05:41:48.086Z,5.00
2023-03-18T05:45:58.577Z,5.11
2023-03-18T05:50:16.681Z,5.23
2023-03-18T05:54:18.993Z,5.36
2023-03-18T05:58:19.645Z,5.46
2023-03-18T06:02:27.144Z,5.52
2023-03-18T06:06:27.966Z,5.60
2023-03-18T06:10:29.460Z,5.77
2023-03-18T06:14:31.564Z,5.98
2023-03-18T06:18:38.107Z,6.20
2023-03-18T06:22:38.964Z,6.38
2023-03-18T06:26:39.978Z,6.71
2023-03-18T06:30:40.785Z,6.91
2023-03-18T06:34:47.440Z,7.14
2023-03-18T06:38:48.451Z,7.08
2023-03-18T06:42:50.263Z,7.31
2023-03-18T06:47:22.171Z,7.35
2023-03-18T06:51:33.713Z,7.43
2023-03-18T06:55:35.132Z,7.49
2023-03-18T06:59:37.722Z,7.64
2023-03-18T07:03:39.188Z,7.77
2023-03-18T07:07:44.938Z,8.01
2023-03-18T07:11:46.190Z,8.15
2023-03-18T07:15:51.107Z,8.34
2023-03-18T07:19:52.040Z,8.48
2023-03-18T07:23:55.782Z,8.56
2023-03-18T07:27:59.759Z,8.84
2023-03-18T07:31:59.955Z,9.30
2023-03-18T07:36:00.594Z,9.79
2023-03-18T07:40:04.170Z,10.23
2023-03-18T07:44:05.154Z,10.57
2023-03-18T07:48:06.193Z,10.91
2023-03-18T07:52:07.001Z,11.33
2023-03-18T07:56:11.811Z,11.59
2023-03-18T08:00:16.110Z,11.98
2023-03-18T08:04:16.607Z,12.25
2023-03-18T08:08:17.107Z,12.30
2023-03-18T08:12:20.293Z,12.48
2023-03-18T08:16:21.033Z,12.78
2023-03-18T08:20:23.248Z,13.16
2023-03-18T08:24:24.686Z,13.58
2023-03-18T08:28:28.989Z,13.43
2023-03-18T08:32:29.475Z,13.46
2023-03-18T08:36:30.319Z,13.26
2023-03-18T08:40:31.165Z,13.47
2023-03-18T08:44:34.800Z,13.66
2023-03-18T08:48:38.445Z,14.07
2023-03-18T08:52:41.552Z,14.52
2023-03-18T08:56:43.723Z,14.75
2023-03-18T09:00:48.286Z,15.12
2023-03-18T09:04:50.537Z,15.56
2023-03-18T09:08:50.948Z,15.57
2023-03-18T09:12:52.570Z,15.62
2023-03-18T09:16:55.820Z,16.25
2023-03-18T09:20:56.748Z,16.57
2023-03-18T09:24:57.211Z,16.70
2023-03-18T09:28:57.706Z,16.72
2023-03-18T09:33:01.906Z,16.53
2023-03-18T09:37:02.543Z,17.47
2023-03-18T09:41:21.579Z,17.21
2023-03-18T09:45:31.662Z,17.60
2023-03-18T09:50:06.817Z,17.69
2023-03-18T09:54:16.034Z,18.03
2023-03-18T09:58:31.442Z,18.64
2023-03-18T10:02:41.051Z,18.23
2023-03-18T10:06:48.526Z,17.98
2023-03-18T10:10:52.149Z,17.47
2023-03-18T10:15:10.334Z,17.80
2023-03-18T10:19:12.928Z,18.11
2023-03-18T10:23:35.071Z,19.46
2023-03-18T10:27:50.355Z,20.35
2023-03-18T10:32:11.025Z,20.93
2023-03-18T10:36:20.738Z,21.05
2023-03-18T10:40:38.559Z,21.93
2023-03-18T10:44:45.939Z,21.93
2023-03-18T10:48:54.488Z,22.55
2023-03-18T10:53:07.210Z,22.33
2023-03-18T10:57:17.076Z,23.69
2023-03-18T11:01:23.370Z,24.31
2023-03-18T11:05:29.183Z,24.03
2023-03-18T11:09:36.470Z,23.94
2023-03-18T11:13:41.449Z,24.93
2023-03-18T11:17:43.503Z,26.08
2023-03-18T11:21:45.061Z,26.41
2023-03-18T11:25:49.637Z,26.26
2023-03-18T11:30:01.279Z,26.80
2023-03-18T11:34:03.322Z,26.78
2023-03-18T11:38:07.432Z,25.72
2023-03-18T11:42:22.341Z,25.85
2023-03-18T11:46:29.503Z,25.20
2023-03-18T11:50:42.463Z,26.84
2023-03-18T11:55:12.017Z,26.86
2023-03-18T11:59:39.993Z,28.30
2023-03-18T12:04:37.895Z,27.78
2023-03-18T12:08:57.123Z,27.05
2023-03-18T12:13:22.647Z,26.31
2023-03-18T12:17:41.159Z,25.45
2023-03-18T12:22:11.787Z,24.80
2023-03-18T12:26:21.225Z,24.53
2023-03-18T12:30:43.395Z,24.70
2023-03-18T12:35:09.316Z,25.58
2023-03-18T12:39:53.452Z,27.28
2023-03-18T12:44:11.902Z,28.96
2023-03-18T12:48:21.940Z,30.89
2023-03-18T12:52:35.996Z,30.79
2023-03-18T12:56:51.124Z,30.82
2023-03-18T13:00:59.960Z,30.45
2023-03-18T13:05:07.181Z,30.66
2023-03-18T13:09:22.018Z,30.78
2023-03-18T13:13:27.834Z,29.81
2023-03-18T13:17:36.830Z,31.16
2023-03-18T13:21:46.159Z,31.34
2023-03-18T13:26:07.144Z,30.08
2023-03-18T13:30:24.083Z,28.76
2023-03-18T13:34:57.720Z,28.12
2023-03-18T13:39:29.742Z,27.99
2023-03-18T13:43:32.842Z,28.41
2023-03-18T13:47:41.368Z,29.06
2023-03-18T13:51:56.418Z,29.11
2023-03-18T13:56:06.479Z,28.19
2023-03-18T14:00:33.402Z,26.29
2023-03-18T14:04:50.469Z,25.90
2023-03-18T14:08:54.120Z,27.67
2023-03-18T14:12:54.575Z,28.63
2023-03-18T14:16:56.431Z,28.58
2023-03-18T14:21:05.212Z,28.19
2023-03-18T14:25:37.929Z,28.64
2023-03-18T14:29:43.687Z,29.13
2023-03-18T14:34:01.851Z,27.39
2023-03-18T14:38:17.067Z,25.97
2023-03-18T14:42:32.256Z,25.57
2023-03-18T14:46:39.227Z,24.90
2023-03-18T14:50:45.426Z,24.80
2023-03-18T14:54:49.743Z,25.07
2023-03-18T14:58:53.445Z,24.91
2023-03-18T15:03:03.894Z,24.63
2023-03-18T15:07:11.257Z,24.22
2023-03-18T15:11:16.599Z,23.75
2023-03-18T15:15:19.893Z,23.57
2023-03-18T15:19:22.135Z,23.50
2023-03-18T15:23:32.292Z,23.67
2023-03-18T15:27:38.330Z,23.87
2023-03-18T15:31:46.254Z,24.48
2023-03-18T15:35:48.734Z,23.71
2023-03-18T15:39:48.805Z,23.03
2023-03-18T15:43:54.068Z,23.24
2023-03-18T15:47:54.406Z,22.85
2023-03-18T15:52:03.188Z,22.33
2023-03-18T15:56:19.860Z,22.02
2023-03-18T16:00:24.546Z,21.83
2023-03-18T16:04:25.727Z,21.36
2023-03-18T16:08:27.345Z,20.68
2023-03-18T16:12:32.520Z,20.76
2023-03-18T16:16:36.950Z,20.55
2023-03-18T16:20:38.077Z,20.11
2023-03-18T16:24:41.877Z,20.03
2023-03-18T16:28:43.920Z,19.85
2023-03-18T16:32:47.431Z,19.63
2023-03-18T16:36:50.885Z,19.46
2023-03-18T16:40:53.792Z,19.26
2023-03-18T16:44:55.028Z,19.27
2023-03-18T16:48:58.496Z,18.94
2023-03-18T16:52:58.832Z,18.74
2023-03-18T16:57:02.225Z,18.70
2023-03-18T17:01:04.992Z,18.48
2023-03-18T17:05:10.086Z,18.31
2023-03-18T17:09:10.318Z,18.32
2023-03-18T17:13:18.485Z,18.24
2023-03-18T17:17:28.235Z,18.05
2023-03-18T17:21:33.542Z,17.73
2023-03-18T17:25:34.668Z,17.71
2023-03-18T17:29:34.914Z,17.35
2023-03-18T17:33:37.912Z,17.02
2023-03-18T17:37:40.558Z,16.87
2023-03-18T17:41:40.784Z,16.63
2023-03-18T17:45:41.023Z,16.45
2023-03-18T17:49:41.884Z,16.36
2023-03-18T17:53:51.426Z,15.98
2023-03-18T17:57:52.181Z,15.74
2023-03-18T18:01:54.002Z,15.59
2023-03-18T18:05:55.366Z,15.22
2023-03-18T18:10:01.193Z,15.20
2023-03-18T18:14:13.467Z,15.26
2023-03-18T18:18:40.137Z,15.16
2023-03-18T18:23:00.144Z,15.34
2023-03-18T18:27:14.686Z,15.38
2023-03-18T18:31:17.666Z,15.24
2023-03-18T18:35:21.285Z,15.15
2023-03-18T18:39:21.900Z,15.18
2023-03-18T18:43:26.042Z,15.16
2023-03-18T18:47:26.101Z,15.07
2023-03-18T18:51:28.467Z,15.08
2023-03-18T18:55:41.237Z,15.11
2023-03-18T18:59:53.695Z,15.02
2023-03-18T19:04:00.233Z,14.91
2023-03-18T19:08:07.024Z,14.81
2023-03-18T19:12:23.831Z,14.67
2023-03-18T19:16:45.733Z,14.56
2023-03-18T19:20:52.954Z,14.51
2023-03-18T19:24:53.070Z,14.31
2023-03-18T19:28:59.356Z,14.12
2023-03-18T19:33:02.503Z,14.11
2023-03-18T19:37:06.040Z,13.70
2023-03-18T19:41:07.123Z,13.62
2023-03-18T19:45:11.793Z,13.56
2023-03-18T19:49:26.406Z,13.63
2023-03-18T19:53:30.369Z,13.28
2023-03-18T19:57:34.075Z,13.21
2023-03-18T20:01:34.253Z,13.08
2023-03-18T20:05:37.051Z,12.55
2023-03-18T20:09:37.328Z,12.51
2023-03-18T20:13:37.411Z,12.49
2023-03-18T20:17:41.624Z,12.35
2023-03-18T20:21:45.059Z,12.38
2023-03-18T20:25:48.330Z,12.24
2023-03-18T20:29:49.997Z,12.11
2023-03-18T20:33:50.894Z,11.88
2023-03-18T20:37:53.758Z,11.67
2023-03-18T20:41:53.968Z,11.50
2023-03-18T20:45:55.767Z,11.82
2023-03-18T20:49:55.857Z,12.06
2023-03-18T20:53:58.566Z,12.18
2023-03-18T20:57:58.866Z,12.11
2023-03-18T21:01:59.012Z,12.39
2023-03-18T21:06:03.572Z,12.39
2023-03-18T21:10:06.906Z,12.38
2023-03-18T21:14:07.250Z,12.29
2023-03-18T21:18:07.827Z,11.67
2023-03-18T21:22:08.163Z,12.18
2023-03-18T21:26:10.907Z,12.05
2023-03-18T21:30:13.891Z,12.09
2023-03-18T21:34:14.573Z,11.97
2023-03-18T21:38:14.677Z,11.79
2023-03-18T21:42:24.819Z,11.70
2023-03-18T21:46:29.853Z,11.73
2023-03-18T21:50:30.086Z,11.60
2023-03-18T21:54:30.653Z,11.45
2023-03-18T21:58:33.334Z,11.31
2023-03-18T22:02:36.651Z,11.28
2023-03-18T22:06:37.372Z,11.14
2023-03-18T22:10:37.829Z,10.97
2023-03-18T22:14:40.456Z,10.79
2023-03-18T22:18:40.554Z,10.71
2023-03-18T22:22:40.629Z,10.51
2023-03-18T22:26:40.682Z,10.47
2023-03-18T22:30:46.553Z,10.49
2023-03-18T22:34:46.633Z,10.39
2023-03-18T22:38:47.271Z,10.33
2023-03-18T22:42:48.904Z,10.22
2023-03-18T22:46:51.627Z,10.42
2023-03-18T22:50:53.688Z,10.30
2023-03-18T22:54:58.511Z,9.90
2023-03-18T22:58:58.611Z,9.97
2023-03-18T23:03:01.777Z,9.87
2023-03-18T23:07:01.980Z,9.78
2023-03-18T23:11:04.381Z,9.46
2023-03-18T23:15:05.735Z,9.63
2023-03-18T23:19:08.342Z,9.46
2023-03-18T23:23:08.511Z,9.44
2023-03-18T23:27:09.313Z,9.50
2023-03-18T23:31:09.700Z,9.46
2023-03-18T23:35:13.459Z,9.36
2023-03-18T23:39:13.622Z,9.30
2023-03-18T23:43:13.707Z,9.41
2023-03-18T23:47:15.983Z,9.43
2023-03-18T23:51:18.871Z,9.35
2023-03-18T23:55:33.601Z,9.50
2023-03-18T23:59:34.902Z,9.49
